sensor_id;sensor_type;location;lat;lon;timestamp;P1;durP1;ratioP1;P2;durP2;ratioP2
5762;SDS011;2906;53.282;9.508;2022-11-15T00:00:29;36.50;;;19.65;;
5762;SDS011;2906;53.282;9.508;2022-11-15T00:01:31;37.05;;;20.02;;
5762;SDS011;2906;53.282;9.508;2022-11-15T00:02:32;38.78;;;19.65;;
5762;SDS011;2906;53.282;9.508;2022-11-15T00:03:35;41.20;;;21.25;;
5762;SDS011;2906;53.282;9.508;2022-11-15T00:04:36;40.17;;;20.85;;
5762;SDS011;2906;53.282;9.508;2022-11-15T00:05:38;39.13;;;20.02;;
5762;SDS011;2906;53.282;9.508;2022-11-15T00:06:40;38.38;;;19.75;;
5762;SDS011;2906;53.282;9.508;2022-11-15T00:07:43;38.00;;;19.20;;
5762;SDS011;2906;53.282;9.508;2022-11-15T00:08:45;37.83;;;19.75;;
5762;SDS011;2906;53.282;9.508;2022-11-15T00:09:47;39.53;;;20.00;;
5762;SDS011;2906;53.282;9.508;2022-11-15T00:10:55;37.80;;;19.30;;
5762;SDS011;2906;53.282;9.508;2022-11-15T00:11:58;36.35;;;17.92;;
5762;SDS011;2906;53.282;9.508;2022-11-15T00:13:03;32.33;;;17.90;;
5762;SDS011;2906;53.282;9.508;2022-11-15T00:14:05;39.55;;;19.30;;
5762;SDS011;2906;53.282;9.508;2022-11-15T00:15:07;36.03;;;18.17;;
5762;SDS011;2906;53.282;9.508;2022-11-15T00:16:09;35.08;;;18.00;;
5762;SDS011;2906;53.282;9.508;2022-11-15T00:17:11;36.08;;;18.77;;
5762;SDS011;2906;53.282;9.508;2022-11-15T00:18:13;31.15;;;16.92;;
5762;SDS011;2906;53.282;9.508;2022-11-15T00:19:16;33.42;;;17.85;;
5762;SDS011;2906;53.282;9.508;2022-11-15T00:20:17;35.90;;;18.67;;
5762;SDS011;2906;53.282;9.508;2022-11-15T00:21:19;34.17;;;16.85;;
5762;SDS011;2906;53.282;9.508;2022-11-15T00:22:22;32.45;;;17.30;;
5762;SDS011;2906;53.282;9.508;2022-11-15T00:23:24;36.92;;;18.40;;
5762;SDS011;2906;53.282;9.508;2022-11-15T00:24:27;33.83;;;18.13;;
5762;SDS011;2906;53.282;9.508;2022-11-15T00:25:28;37.33;;;18.50;;
5762;SDS011;2906;53.282;9.508;2022-11-15T00:26:30;32.38;;;17.38;;
5762;SDS011;2906;53.282;9.508;2022-11-15T00:27:32;37.67;;;17.65;;
5762;SDS011;2906;53.282;9.508;2022-11-15T00:28:34;36.00;;;18.02;;
5762;SDS011;2906;53.282;9.508;2022-11-15T00:29:36;35.72;;;18.20;;
5762;SDS011;2906;53.282;9.508;2022-11-15T00:30:38;32.72;;;17.00;;
5762;SDS011;2906;53.282;9.508;2022-11-15T00:31:40;32.65;;;16.63;;
5762;SDS011;2906;53.282;9.508;2022-11-15T00:32:42;37.30;;;18.10;;
5762;SDS011;2906;53.282;9.508;2022-11-15T00:33:44;33.15;;;17.10;;
5762;SDS011;2906;53.282;9.508;2022-11-15T00:34:45;34.72;;;17.15;;
5762;SDS011;2906;53.282;9.508;2022-11-15T00:35:48;35.35;;;18.20;;
5762;SDS011;2906;53.282;9.508;2022-11-15T00:36:49;35.05;;;16.85;;
5762;SDS011;2906;53.282;9.508;2022-11-15T00:37:52;35.38;;;17.20;;
5762;SDS011;2906;53.282;9.508;2022-11-15T00:38:54;34.53;;;17.17;;
5762;SDS011;2906;53.282;9.508;2022-11-15T00:39:57;33.13;;;18.00;;
5762;SDS011;2906;53.282;9.508;2022-11-15T00:40:58;47.03;;;17.30;;
5762;SDS011;2906;53.282;9.508;2022-11-15T00:42:00;33.30;;;17.17;;
5762;SDS011;2906;53.282;9.508;2022-11-15T00:43:02;33.95;;;17.02;;
5762;SDS011;2906;53.282;9.508;2022-11-15T00:44:04;32.20;;;16.17;;
5762;SDS011;2906;53.282;9.508;2022-11-15T00:45:06;35.75;;;17.02;;
5762;SDS011;2906;53.282;9.508;2022-11-15T00:46:08;36.75;;;18.60;;
5762;SDS011;2906;53.282;9.508;2022-11-15T00:47:09;33.10;;;17.27;;
5762;SDS011;2906;53.282;9.508;2022-11-15T00:48:12;35.17;;;17.65;;
5762;SDS011;2906;53.282;9.508;2022-11-15T00:49:13;30.55;;;16.08;;
5762;SDS011;2906;53.282;9.508;2022-11-15T00:50:16;34.30;;;16.85;;
5762;SDS011;2906;53.282;9.508;2022-11-15T00:51:17;36.88;;;17.48;;
5762;SDS011;2906;53.282;9.508;2022-11-15T00:52:19;34.08;;;17.83;;
5762;SDS011;2906;53.282;9.508;2022-11-15T00:53:21;32.72;;;17.15;;
5762;SDS011;2906;53.282;9.508;2022-11-15T00:54:24;33.03;;;17.73;;
5762;SDS011;2906;53.282;9.508;2022-11-15T00:55:26;33.40;;;16.92;;
5762;SDS011;2906;53.282;9.508;2022-11-15T00:56:28;33.53;;;17.10;;
5762;SDS011;2906;53.282;9.508;2022-11-15T00:57:30;32.42;;;17.30;;
5762;SDS011;2906;53.282;9.508;2022-11-15T00:58:32;34.95;;;17.13;;
5762;SDS011;2906;53.282;9.508;2022-11-15T00:59:34;34.30;;;16.35;;
5762;SDS011;2906;53.282;9.508;2022-11-15T01:00:35;36.05;;;17.23;;
5762;SDS011;2906;53.282;9.508;2022-11-15T01:01:37;32.60;;;16.05;;
5762;SDS011;2906;53.282;9.508;2022-11-15T01:02:39;35.88;;;17.77;;
5762;SDS011;2906;53.282;9.508;2022-11-15T01:03:41;30.90;;;16.00;;
5762;SDS011;2906;53.282;9.508;2022-11-15T01:04:43;34.95;;;16.60;;
5762;SDS011;2906;53.282;9.508;2022-11-15T01:05:45;35.95;;;18.00;;
5762;SDS011;2906;53.282;9.508;2022-11-15T01:06:46;33.33;;;16.42;;
5762;SDS011;2906;53.282;9.508;2022-11-15T01:07:50;41.63;;;17.08;;
5762;SDS011;2906;53.282;9.508;2022-11-15T01:08:52;34.88;;;17.30;;
5762;SDS011;2906;53.282;9.508;2022-11-15T01:09:55;36.75;;;18.20;;
5762;SDS011;2906;53.282;9.508;2022-11-15T01:10:59;38.35;;;17.90;;
5762;SDS011;2906;53.282;9.508;2022-11-15T01:12:02;33.08;;;17.23;;
5762;SDS011;2906;53.282;9.508;2022-11-15T01:13:03;35.88;;;16.45;;
5762;SDS011;2906;53.282;9.508;2022-11-15T01:14:05;32.75;;;16.73;;
5762;SDS011;2906;53.282;9.508;2022-11-15T01:15:07;34.55;;;16.70;;
5762;SDS011;2906;53.282;9.508;2022-11-15T01:16:11;36.83;;;18.55;;
5762;SDS011;2906;53.282;9.508;2022-11-15T01:17:12;33.00;;;15.98;;
5762;SDS011;2906;53.282;9.508;2022-11-15T01:18:15;35.15;;;16.90;;
5762;SDS011;2906;53.282;9.508;2022-11-15T01:19:17;31.77;;;17.08;;
5762;SDS011;2906;53.282;9.508;2022-11-15T01:20:18;35.42;;;17.25;;
5762;SDS011;2906;53.282;9.508;2022-11-15T01:21:20;31.98;;;16.92;;
5762;SDS011;2906;53.282;9.508;2022-11-15T01:22:23;33.05;;;15.57;;
5762;SDS011;2906;53.282;9.508;2022-11-15T01:23:24;32.25;;;15.65;;
5762;SDS011;2906;53.282;9.508;2022-11-15T01:24:26;34.13;;;17.52;;
5762;SDS011;2906;53.282;9.508;2022-11-15T01:25:30;33.15;;;17.23;;
5762;SDS011;2906;53.282;9.508;2022-11-15T01:26:31;33.50;;;16.17;;
5762;SDS011;2906;53.282;9.508;2022-11-15T01:27:34;32.55;;;16.42;;
5762;SDS011;2906;53.282;9.508;2022-11-15T01:28:36;40.75;;;16.45;;
5762;SDS011;2906;53.282;9.508;2022-11-15T01:29:39;31.27;;;16.65;;
5762;SDS011;2906;53.282;9.508;2022-11-15T01:30:40;35.03;;;16.80;;
5762;SDS011;2906;53.282;9.508;2022-11-15T01:31:42;30.58;;;15.35;;
5762;SDS011;2906;53.282;9.508;2022-11-15T01:32:44;32.80;;;16.65;;
5762;SDS011;2906;53.282;9.508;2022-11-15T01:33:46;35.42;;;15.80;;
5762;SDS011;2906;53.282;9.508;2022-11-15T01:34:48;33.47;;;16.42;;
5762;SDS011;2906;53.282;9.508;2022-11-15T01:35:50;30.42;;;15.98;;
5762;SDS011;2906;53.282;9.508;2022-11-15T01:36:52;31.15;;;16.00;;
5762;SDS011;2906;53.282;9.508;2022-11-15T01:37:54;30.45;;;15.77;;
5762;SDS011;2906;53.282;9.508;2022-11-15T01:38:55;30.35;;;15.40;;
5762;SDS011;2906;53.282;9.508;2022-11-15T01:39:58;33.05;;;15.05;;
5762;SDS011;2906;53.282;9.508;2022-11-15T01:41:01;32.65;;;14.90;;
5762;SDS011;2906;53.282;9.508;2022-11-15T01:42:03;35.13;;;16.27;;
5762;SDS011;2906;53.282;9.508;2022-11-15T01:44:34;34.92;;;16.55;;
5762;SDS011;2906;53.282;9.508;2022-11-15T01:45:37;32.42;;;15.50;;
5762;SDS011;2906;53.282;9.508;2022-11-15T01:46:39;38.58;;;16.75;;
5762;SDS011;2906;53.282;9.508;2022-11-15T01:47:46;31.25;;;16.50;;
5762;SDS011;2906;53.282;9.508;2022-11-15T01:48:51;33.67;;;16.13;;
5762;SDS011;2906;53.282;9.508;2022-11-15T01:49:55;34.45;;;16.55;;
5762;SDS011;2906;53.282;9.508;2022-11-15T01:50:58;33.03;;;16.42;;
5762;SDS011;2906;53.282;9.508;2022-11-15T01:52:01;32.55;;;16.40;;
5762;SDS011;2906;53.282;9.508;2022-11-15T01:53:04;35.00;;;16.80;;
5762;SDS011;2906;53.282;9.508;2022-11-15T01:54:07;34.08;;;16.38;;
5762;SDS011;2906;53.282;9.508;2022-11-15T01:55:10;34.30;;;17.00;;
5762;SDS011;2906;53.282;9.508;2022-11-15T01:56:16;33.78;;;15.35;;
5762;SDS011;2906;53.282;9.508;2022-11-15T01:57:18;33.75;;;16.90;;
5762;SDS011;2906;53.282;9.508;2022-11-15T01:58:19;33.47;;;15.02;;
5762;SDS011;2906;53.282;9.508;2022-11-15T01:59:21;33.45;;;15.35;;
5762;SDS011;2906;53.282;9.508;2022-11-15T02:00:23;37.15;;;16.02;;
5762;SDS011;2906;53.282;9.508;2022-11-15T02:01:25;32.38;;;16.23;;
5762;SDS011;2906;53.282;9.508;2022-11-15T02:02:27;32.38;;;15.35;;
5762;SDS011;2906;53.282;9.508;2022-11-15T02:03:31;31.95;;;15.88;;
5762;SDS011;2906;53.282;9.508;2022-11-15T02:04:35;33.65;;;15.93;;
5762;SDS011;2906;53.282;9.508;2022-11-15T02:05:38;35.67;;;17.02;;
5762;SDS011;2906;53.282;9.508;2022-11-15T02:06:41;28.55;;;14.65;;
5762;SDS011;2906;53.282;9.508;2022-11-15T02:07:43;31.25;;;14.75;;
5762;SDS011;2906;53.282;9.508;2022-11-15T02:08:46;31.42;;;15.57;;
5762;SDS011;2906;53.282;9.508;2022-11-15T02:09:48;30.55;;;14.85;;
5762;SDS011;2906;53.282;9.508;2022-11-15T02:10:51;33.55;;;16.48;;
5762;SDS011;2906;53.282;9.508;2022-11-15T02:11:54;31.70;;;15.45;;
5762;SDS011;2906;53.282;9.508;2022-11-15T02:12:57;32.35;;;14.65;;
5762;SDS011;2906;53.282;9.508;2022-11-15T02:14:00;32.35;;;15.18;;
5762;SDS011;2906;53.282;9.508;2022-11-15T02:15:03;32.67;;;16.45;;
5762;SDS011;2906;53.282;9.508;2022-11-15T02:16:08;30.50;;;16.50;;
5762;SDS011;2906;53.282;9.508;2022-11-15T02:17:25;39.67;;;16.30;;
5762;SDS011;2906;53.282;9.508;2022-11-15T02:18:32;35.22;;;15.65;;
5762;SDS011;2906;53.282;9.508;2022-11-15T02:19:40;29.98;;;14.93;;
5762;SDS011;2906;53.282;9.508;2022-11-15T02:20:52;32.33;;;17.08;;
5762;SDS011;2906;53.282;9.508;2022-11-15T02:21:59;32.00;;;15.02;;
5762;SDS011;2906;53.282;9.508;2022-11-15T02:23:13;33.90;;;17.40;;
5762;SDS011;2906;53.282;9.508;2022-11-15T02:24:32;35.83;;;16.27;;
5762;SDS011;2906;53.282;9.508;2022-11-15T02:25:38;34.40;;;15.98;;
5762;SDS011;2906;53.282;9.508;2022-11-15T02:26:47;32.78;;;15.95;;
5762;SDS011;2906;53.282;9.508;2022-11-15T02:28:02;29.08;;;15.30;;
5762;SDS011;2906;53.282;9.508;2022-11-15T02:29:08;31.58;;;15.55;;
5762;SDS011;2906;53.282;9.508;2022-11-15T02:30:17;30.52;;;14.70;;
5762;SDS011;2906;53.282;9.508;2022-11-15T02:31:20;29.67;;;15.00;;
5762;SDS011;2906;53.282;9.508;2022-11-15T02:32:27;29.55;;;14.88;;
5762;SDS011;2906;53.282;9.508;2022-11-15T02:33:35;34.13;;;16.05;;
5762;SDS011;2906;53.282;9.508;2022-11-15T02:34:41;36.53;;;15.75;;
5762;SDS011;2906;53.282;9.508;2022-11-15T02:35:48;34.08;;;16.65;;
5762;SDS011;2906;53.282;9.508;2022-11-15T02:36:55;31.52;;;15.60;;
5762;SDS011;2906;53.282;9.508;2022-11-15T02:38:04;31.52;;;15.50;;
5762;SDS011;2906;53.282;9.508;2022-11-15T02:39:08;31.88;;;15.77;;
5762;SDS011;2906;53.282;9.508;2022-11-15T02:40:14;30.42;;;15.60;;
5762;SDS011;2906;53.282;9.508;2022-11-15T02:41:20;29.58;;;15.40;;
5762;SDS011;2906;53.282;9.508;2022-11-15T02:42:25;29.20;;;15.20;;
5762;SDS011;2906;53.282;9.508;2022-11-15T02:43:44;34.92;;;15.63;;
5762;SDS011;2906;53.282;9.508;2022-11-15T02:45:03;32.85;;;16.08;;
5762;SDS011;2906;53.282;9.508;2022-11-15T02:46:08;34.45;;;16.30;;
5762;SDS011;2906;53.282;9.508;2022-11-15T02:47:13;27.73;;;14.90;;
5762;SDS011;2906;53.282;9.508;2022-11-15T02:48:17;31.17;;;16.30;;
5762;SDS011;2906;53.282;9.508;2022-11-15T02:49:19;33.78;;;16.23;;
5762;SDS011;2906;53.282;9.508;2022-11-15T02:50:23;34.35;;;16.42;;
5762;SDS011;2906;53.282;9.508;2022-11-15T02:51:25;33.03;;;17.10;;
5762;SDS011;2906;53.282;9.508;2022-11-15T02:52:28;35.17;;;16.50;;
5762;SDS011;2906;53.282;9.508;2022-11-15T02:53:29;34.97;;;16.42;;
5762;SDS011;2906;53.282;9.508;2022-11-15T02:54:32;32.08;;;16.50;;
5762;SDS011;2906;53.282;9.508;2022-11-15T02:55:36;31.58;;;16.58;;
5762;SDS011;2906;53.282;9.508;2022-11-15T02:56:39;44.25;;;17.50;;
5762;SDS011;2906;53.282;9.508;2022-11-15T02:57:43;35.47;;;16.92;;
5762;SDS011;2906;53.282;9.508;2022-11-15T02:58:51;37.08;;;17.27;;
5762;SDS011;2906;53.282;9.508;2022-11-15T02:59:58;38.13;;;17.13;;
5762;SDS011;2906;53.282;9.508;2022-11-15T03:01:04;39.78;;;16.92;;
5762;SDS011;2906;53.282;9.508;2022-11-15T03:02:14;35.25;;;16.80;;
5762;SDS011;2906;53.282;9.508;2022-11-15T03:03:23;34.00;;;17.52;;
5762;SDS011;2906;53.282;9.508;2022-11-15T03:04:33;41.70;;;17.85;;
5762;SDS011;2906;53.282;9.508;2022-11-15T03:05:40;37.70;;;17.50;;
5762;SDS011;2906;53.282;9.508;2022-11-15T03:06:44;36.17;;;17.33;;
5762;SDS011;2906;53.282;9.508;2022-11-15T03:07:51;41.60;;;17.55;;
5762;SDS011;2906;53.282;9.508;2022-11-15T03:08:57;32.25;;;16.77;;
5762;SDS011;2906;53.282;9.508;2022-11-15T03:10:02;36.15;;;15.90;;
5762;SDS011;2906;53.282;9.508;2022-11-15T03:11:07;32.80;;;16.75;;
5762;SDS011;2906;53.282;9.508;2022-11-15T03:12:11;36.33;;;17.88;;
5762;SDS011;2906;53.282;9.508;2022-11-15T03:13:21;34.72;;;17.83;;
5762;SDS011;2906;53.282;9.508;2022-11-15T03:14:28;32.70;;;17.00;;
5762;SDS011;2906;53.282;9.508;2022-11-15T03:15:31;38.70;;;17.25;;
5762;SDS011;2906;53.282;9.508;2022-11-15T03:16:35;31.52;;;17.05;;
5762;SDS011;2906;53.282;9.508;2022-11-15T03:17:40;39.25;;;17.85;;
5762;SDS011;2906;53.282;9.508;2022-11-15T03:18:43;33.22;;;16.45;;
5762;SDS011;2906;53.282;9.508;2022-11-15T03:19:46;39.47;;;15.52;;
5762;SDS011;2906;53.282;9.508;2022-11-15T03:20:49;38.63;;;16.90;;
5762;SDS011;2906;53.282;9.508;2022-11-15T03:21:51;35.72;;;17.25;;
5762;SDS011;2906;53.282;9.508;2022-11-15T03:22:55;33.03;;;17.33;;
5762;SDS011;2906;53.282;9.508;2022-11-15T03:23:57;33.80;;;16.48;;
5762;SDS011;2906;53.282;9.508;2022-11-15T03:25:04;30.85;;;17.15;;
5762;SDS011;2906;53.282;9.508;2022-11-15T03:26:07;30.35;;;16.33;;
5762;SDS011;2906;53.282;9.508;2022-11-15T03:27:12;35.65;;;17.05;;
5762;SDS011;2906;53.282;9.508;2022-11-15T03:28:16;30.23;;;17.17;;
5762;SDS011;2906;53.282;9.508;2022-11-15T03:29:20;36.20;;;17.50;;
5762;SDS011;2906;53.282;9.508;2022-11-15T03:30:22;33.75;;;16.65;;
5762;SDS011;2906;53.282;9.508;2022-11-15T03:31:26;32.58;;;17.10;;
5762;SDS011;2906;53.282;9.508;2022-11-15T03:32:45;37.00;;;17.40;;
5762;SDS011;2906;53.282;9.508;2022-11-15T03:33:48;31.55;;;16.45;;
5762;SDS011;2906;53.282;9.508;2022-11-15T03:34:50;35.58;;;16.80;;
5762;SDS011;2906;53.282;9.508;2022-11-15T03:35:54;33.17;;;16.55;;
5762;SDS011;2906;53.282;9.508;2022-11-15T03:36:57;34.95;;;17.90;;
5762;SDS011;2906;53.282;9.508;2022-11-15T03:37:59;31.95;;;17.85;;
5762;SDS011;2906;53.282;9.508;2022-11-15T03:39:04;30.85;;;16.52;;
5762;SDS011;2906;53.282;9.508;2022-11-15T03:40:07;33.92;;;16.83;;
5762;SDS011;2906;53.282;9.508;2022-11-15T03:41:11;30.88;;;16.50;;
5762;SDS011;2906;53.282;9.508;2022-11-15T03:42:17;35.45;;;17.23;;
5762;SDS011;2906;53.282;9.508;2022-11-15T03:43:24;35.97;;;16.85;;
5762;SDS011;2906;53.282;9.508;2022-11-15T03:44:32;30.90;;;15.88;;
5762;SDS011;2906;53.282;9.508;2022-11-15T03:45:39;33.40;;;17.95;;
5762;SDS011;2906;53.282;9.508;2022-11-15T03:46:42;34.42;;;16.55;;
5762;SDS011;2906;53.282;9.508;2022-11-15T03:47:51;37.28;;;16.52;;
5762;SDS011;2906;53.282;9.508;2022-11-15T03:48:55;32.53;;;16.00;;
5762;SDS011;2906;53.282;9.508;2022-11-15T03:49:59;31.13;;;15.95;;
5762;SDS011;2906;53.282;9.508;2022-11-15T03:51:02;31.83;;;15.95;;
5762;SDS011;2906;53.282;9.508;2022-11-15T03:52:05;27.98;;;16.13;;
5762;SDS011;2906;53.282;9.508;2022-11-15T03:53:07;35.50;;;17.13;;
5762;SDS011;2906;53.282;9.508;2022-11-15T03:54:10;31.52;;;16.67;;
5762;SDS011;2906;53.282;9.508;2022-11-15T03:55:13;36.95;;;17.00;;
5762;SDS011;2906;53.282;9.508;2022-11-15T03:56:16;28.95;;;16.63;;
5762;SDS011;2906;53.282;9.508;2022-11-15T03:57:17;35.38;;;16.90;;
5762;SDS011;2906;53.282;9.508;2022-11-15T03:58:19;28.45;;;16.02;;
5762;SDS011;2906;53.282;9.508;2022-11-15T03:59:21;33.00;;;17.42;;
5762;SDS011;2906;53.282;9.508;2022-11-15T04:00:24;33.90;;;16.23;;
5762;SDS011;2906;53.282;9.508;2022-11-15T04:01:25;30.42;;;17.08;;
5762;SDS011;2906;53.282;9.508;2022-11-15T04:02:27;30.13;;;16.75;;
5762;SDS011;2906;53.282;9.508;2022-11-15T04:03:30;34.75;;;17.50;;
5762;SDS011;2906;53.282;9.508;2022-11-15T04:04:32;31.83;;;16.52;;
5762;SDS011;2906;53.282;9.508;2022-11-15T04:05:34;32.95;;;17.25;;
5762;SDS011;2906;53.282;9.508;2022-11-15T04:06:36;33.58;;;15.85;;
5762;SDS011;2906;53.282;9.508;2022-11-15T04:07:37;29.48;;;16.60;;
5762;SDS011;2906;53.282;9.508;2022-11-15T04:08:40;33.35;;;16.33;;
5762;SDS011;2906;53.282;9.508;2022-11-15T04:09:41;29.60;;;16.83;;
5762;SDS011;2906;53.282;9.508;2022-11-15T04:10:57;33.42;;;15.93;;
5762;SDS011;2906;53.282;9.508;2022-11-15T04:12:00;31.25;;;16.45;;
5762;SDS011;2906;53.282;9.508;2022-11-15T04:13:01;27.92;;;16.05;;
5762;SDS011;2906;53.282;9.508;2022-11-15T04:14:04;31.27;;;17.05;;
5762;SDS011;2906;53.282;9.508;2022-11-15T04:15:06;32.00;;;17.08;;
5762;SDS011;2906;53.282;9.508;2022-11-15T04:16:08;30.75;;;15.27;;
5762;SDS011;2906;53.282;9.508;2022-11-15T04:17:11;37.67;;;18.40;;
5762;SDS011;2906;53.282;9.508;2022-11-15T04:18:12;26.15;;;15.30;;
5762;SDS011;2906;53.282;9.508;2022-11-15T04:19:16;32.15;;;16.98;;
5762;SDS011;2906;53.282;9.508;2022-11-15T04:20:32;35.65;;;17.95;;
5762;SDS011;2906;53.282;9.508;2022-11-15T04:21:49;31.40;;;15.95;;
5762;SDS011;2906;53.282;9.508;2022-11-15T04:23:05;35.67;;;16.00;;
5762;SDS011;2906;53.282;9.508;2022-11-15T04:24:22;32.92;;;16.63;;
5762;SDS011;2906;53.282;9.508;2022-11-15T04:25:24;32.85;;;17.27;;
5762;SDS011;2906;53.282;9.508;2022-11-15T04:26:26;26.73;;;12.98;;
5762;SDS011;2906;53.282;9.508;2022-11-15T04:27:28;33.58;;;16.80;;
5762;SDS011;2906;53.282;9.508;2022-11-15T04:28:29;28.33;;;14.73;;
5762;SDS011;2906;53.282;9.508;2022-11-15T04:29:32;32.42;;;15.18;;
5762;SDS011;2906;53.282;9.508;2022-11-15T04:30:34;31.10;;;15.27;;
5762;SDS011;2906;53.282;9.508;2022-11-15T04:31:36;33.92;;;16.17;;
5762;SDS011;2906;53.282;9.508;2022-11-15T04:32:38;29.60;;;16.10;;
5762;SDS011;2906;53.282;9.508;2022-11-15T04:33:39;27.02;;;14.13;;
5762;SDS011;2906;53.282;9.508;2022-11-15T04:34:43;30.67;;;15.35;;
5762;SDS011;2906;53.282;9.508;2022-11-15T04:35:44;31.90;;;15.43;;
5762;SDS011;2906;53.282;9.508;2022-11-15T04:37:06;28.15;;;14.30;;
5762;SDS011;2906;53.282;9.508;2022-11-15T04:38:16;27.15;;;12.75;;
5762;SDS011;2906;53.282;9.508;2022-11-15T04:39:17;33.38;;;13.50;;
5762;SDS011;2906;53.282;9.508;2022-11-15T04:40:19;31.40;;;15.35;;
5762;SDS011;2906;53.282;9.508;2022-11-15T04:41:21;28.60;;;15.40;;
5762;SDS011;2906;53.282;9.508;2022-11-15T04:42:23;23.13;;;11.55;;
5762;SDS011;2906;53.282;9.508;2022-11-15T04:43:24;29.20;;;14.07;;
5762;SDS011;2906;53.282;9.508;2022-11-15T04:44:27;29.08;;;14.45;;
5762;SDS011;2906;53.282;9.508;2022-11-15T04:45:28;30.17;;;15.07;;
5762;SDS011;2906;53.282;9.508;2022-11-15T04:46:31;27.63;;;14.85;;
5762;SDS011;2906;53.282;9.508;2022-11-15T04:47:33;27.40;;;12.63;;
5762;SDS011;2906;53.282;9.508;2022-11-15T04:48:35;28.27;;;15.27;;
5762;SDS011;2906;53.282;9.508;2022-11-15T04:49:36;29.67;;;14.27;;
5762;SDS011;2906;53.282;9.508;2022-11-15T04:50:40;24.58;;;13.80;;
5762;SDS011;2906;53.282;9.508;2022-11-15T04:51:41;30.67;;;14.50;;
5762;SDS011;2906;53.282;9.508;2022-11-15T04:52:52;26.65;;;12.73;;
5762;SDS011;2906;53.282;9.508;2022-11-15T04:53:54;27.33;;;13.82;;
5762;SDS011;2906;53.282;9.508;2022-11-15T04:54:56;28.13;;;14.10;;
5762;SDS011;2906;53.282;9.508;2022-11-15T04:55:58;27.90;;;12.48;;
5762;SDS011;2906;53.282;9.508;2022-11-15T04:57:00;29.85;;;13.85;;
5762;SDS011;2906;53.282;9.508;2022-11-15T04:58:01;26.23;;;13.60;;
5762;SDS011;2906;53.282;9.508;2022-11-15T04:59:04;25.27;;;14.38;;
5762;SDS011;2906;53.282;9.508;2022-11-15T05:00:06;32.47;;;13.98;;
5762;SDS011;2906;53.282;9.508;2022-11-15T05:01:09;27.77;;;14.05;;
5762;SDS011;2906;53.282;9.508;2022-11-15T05:02:12;31.58;;;13.23;;
5762;SDS011;2906;53.282;9.508;2022-11-15T05:03:14;25.30;;;11.63;;
5762;SDS011;2906;53.282;9.508;2022-11-15T05:04:30;28.13;;;14.07;;
5762;SDS011;2906;53.282;9.508;2022-11-15T05:05:31;24.55;;;13.77;;
5762;SDS011;2906;53.282;9.508;2022-11-15T05:06:34;25.20;;;11.45;;
5762;SDS011;2906;53.282;9.508;2022-11-15T05:07:37;26.35;;;13.13;;
5762;SDS011;2906;53.282;9.508;2022-11-15T05:08:38;27.85;;;13.13;;
5762;SDS011;2906;53.282;9.508;2022-11-15T05:09:40;28.45;;;13.90;;
5762;SDS011;2906;53.282;9.508;2022-11-15T05:10:42;24.63;;;13.57;;
5762;SDS011;2906;53.282;9.508;2022-11-15T05:11:44;25.42;;;13.05;;
5762;SDS011;2906;53.282;9.508;2022-11-15T05:12:46;25.08;;;13.35;;
5762;SDS011;2906;53.282;9.508;2022-11-15T05:13:48;27.58;;;12.60;;
5762;SDS011;2906;53.282;9.508;2022-11-15T05:14:49;30.63;;;10.45;;
5762;SDS011;2906;53.282;9.508;2022-11-15T05:15:52;26.85;;;13.88;;
5762;SDS011;2906;53.282;9.508;2022-11-15T05:16:53;27.25;;;14.02;;
5762;SDS011;2906;53.282;9.508;2022-11-15T05:17:57;29.42;;;13.48;;
5762;SDS011;2906;53.282;9.508;2022-11-15T05:18:59;28.65;;;13.30;;
5762;SDS011;2906;53.282;9.508;2022-11-15T05:20:01;28.52;;;11.93;;
5762;SDS011;2906;53.282;9.508;2022-11-15T05:21:03;28.73;;;13.75;;
5762;SDS011;2906;53.282;9.508;2022-11-15T05:22:07;30.50;;;13.38;;
5762;SDS011;2906;53.282;9.508;2022-11-15T05:23:08;31.63;;;11.20;;
5762;SDS011;2906;53.282;9.508;2022-11-15T05:24:10;25.73;;;13.20;;
5762;SDS011;2906;53.282;9.508;2022-11-15T05:25:12;24.90;;;13.00;;
5762;SDS011;2906;53.282;9.508;2022-11-15T05:26:15;26.38;;;11.73;;
5762;SDS011;2906;53.282;9.508;2022-11-15T05:27:17;25.85;;;14.20;;
5762;SDS011;2906;53.282;9.508;2022-11-15T05:28:19;28.17;;;13.45;;
5762;SDS011;2906;53.282;9.508;2022-11-15T05:29:21;26.85;;;13.75;;
5762;SDS011;2906;53.282;9.508;2022-11-15T05:30:23;28.40;;;11.82;;
5762;SDS011;2906;53.282;9.508;2022-11-15T05:31:25;27.48;;;14.25;;
5762;SDS011;2906;53.282;9.508;2022-11-15T05:32:28;27.80;;;13.07;;
5762;SDS011;2906;53.282;9.508;2022-11-15T05:33:29;29.55;;;14.35;;
5762;SDS011;2906;53.282;9.508;2022-11-15T05:34:32;26.70;;;13.48;;
5762;SDS011;2906;53.282;9.508;2022-11-15T05:35:35;25.25;;;13.60;;
5762;SDS011;2906;53.282;9.508;2022-11-15T05:36:40;23.58;;;11.65;;
5762;SDS011;2906;53.282;9.508;2022-11-15T05:37:44;27.80;;;14.02;;
5762;SDS011;2906;53.282;9.508;2022-11-15T05:38:46;25.52;;;13.95;;
5762;SDS011;2906;53.282;9.508;2022-11-15T05:39:49;23.15;;;12.70;;
5762;SDS011;2906;53.282;9.508;2022-11-15T05:40:51;25.83;;;12.82;;
5762;SDS011;2906;53.282;9.508;2022-11-15T05:41:53;30.88;;;14.15;;
5762;SDS011;2906;53.282;9.508;2022-11-15T05:42:56;25.38;;;11.95;;
5762;SDS011;2906;53.282;9.508;2022-11-15T05:43:58;27.70;;;13.48;;
5762;SDS011;2906;53.282;9.508;2022-11-15T05:45:01;27.02;;;14.48;;
5762;SDS011;2906;53.282;9.508;2022-11-15T05:46:04;23.23;;;12.60;;
5762;SDS011;2906;53.282;9.508;2022-11-15T05:47:07;25.75;;;14.20;;
5762;SDS011;2906;53.282;9.508;2022-11-15T05:48:10;22.13;;;11.13;;
5762;SDS011;2906;53.282;9.508;2022-11-15T05:49:12;24.15;;;12.07;;
5762;SDS011;2906;53.282;9.508;2022-11-15T05:50:15;26.67;;;13.63;;
5762;SDS011;2906;53.282;9.508;2022-11-15T05:51:17;24.13;;;11.15;;
5762;SDS011;2906;53.282;9.508;2022-11-15T05:52:22;27.33;;;13.45;;
5762;SDS011;2906;53.282;9.508;2022-11-15T05:53:27;26.30;;;13.88;;
5762;SDS011;2906;53.282;9.508;2022-11-15T05:54:29;28.55;;;14.43;;
5762;SDS011;2906;53.282;9.508;2022-11-15T05:55:33;23.83;;;11.45;;
5762;SDS011;2906;53.282;9.508;2022-11-15T05:56:35;28.65;;;13.95;;
5762;SDS011;2906;53.282;9.508;2022-11-15T05:57:37;28.63;;;13.77;;
5762;SDS011;2906;53.282;9.508;2022-11-15T05:58:38;29.92;;;10.93;;
5762;SDS011;2906;53.282;9.508;2022-11-15T05:59:41;26.88;;;13.25;;
5762;SDS011;2906;53.282;9.508;2022-11-15T06:00:43;27.30;;;13.68;;
5762;SDS011;2906;53.282;9.508;2022-11-15T06:01:45;23.50;;;13.48;;
5762;SDS011;2906;53.282;9.508;2022-11-15T06:02:47;26.02;;;14.00;;
5762;SDS011;2906;53.282;9.508;2022-11-15T06:03:49;29.65;;;11.80;;
5762;SDS011;2906;53.282;9.508;2022-11-15T06:04:51;26.17;;;13.68;;
5762;SDS011;2906;53.282;9.508;2022-11-15T06:05:53;23.00;;;12.85;;
5762;SDS011;2906;53.282;9.508;2022-11-15T06:06:54;25.58;;;12.77;;
5762;SDS011;2906;53.282;9.508;2022-11-15T06:07:57;23.88;;;12.55;;
5762;SDS011;2906;53.282;9.508;2022-11-15T06:09:00;22.65;;;11.23;;
5762;SDS011;2906;53.282;9.508;2022-11-15T06:10:02;26.45;;;13.43;;
5762;SDS011;2906;53.282;9.508;2022-11-15T06:11:04;39.20;;;12.43;;
5762;SDS011;2906;53.282;9.508;2022-11-15T06:12:06;32.75;;;14.07;;
5762;SDS011;2906;53.282;9.508;2022-11-15T06:13:08;23.75;;;10.50;;
5762;SDS011;2906;53.282;9.508;2022-11-15T06:14:10;25.02;;;13.40;;
5762;SDS011;2906;53.282;9.508;2022-11-15T06:15:11;23.50;;;13.02;;
5762;SDS011;2906;53.282;9.508;2022-11-15T06:16:14;24.10;;;13.85;;
5762;SDS011;2906;53.282;9.508;2022-11-15T06:17:15;25.45;;;13.70;;
5762;SDS011;2906;53.282;9.508;2022-11-15T06:18:17;24.65;;;10.27;;
5762;SDS011;2906;53.282;9.508;2022-11-15T06:19:18;20.98;;;13.10;;
5762;SDS011;2906;53.282;9.508;2022-11-15T06:20:21;28.58;;;13.60;;
5762;SDS011;2906;53.282;9.508;2022-11-15T06:21:22;24.35;;;12.55;;
5762;SDS011;2906;53.282;9.508;2022-11-15T06:22:24;29.27;;;13.35;;
5762;SDS011;2906;53.282;9.508;2022-11-15T06:23:26;24.50;;;11.02;;
5762;SDS011;2906;53.282;9.508;2022-11-15T06:24:29;26.05;;;13.50;;